sensor_id;sensor_type;location;lat;lon;timestamp;P1;durP1;ratioP1;P2;durP2;ratioP2
6133;SDS011;3098;42.678;23.364;2023-12-20T00:01:45;189.93;;;74.60;;
6133;SDS011;3098;42.678;23.364;2023-12-20T00:04:40;187.47;;;73.43;;
6133;SDS011;3098;42.678;23.364;2023-12-20T01:10:17;114.70;;;45.77;;
6133;SDS011;3098;42.678;23.364;2023-12-20T01:13:02;123.63;;;50.30;;
6133;SDS011;3098;42.678;23.364;2023-12-20T01:18:50;199.00;;;72.30;;
6133;SDS011;3098;42.678;23.364;2023-12-20T01:21:23;198.17;;;72.53;;
6133;SDS011;3098;42.678;23.364;2023-12-20T02:35:06;259.10;;;97.07;;
6133;SDS011;3098;42.678;23.364;2023-12-20T02:37:39;264.63;;;98.10;;
6133;SDS011;3098;42.678;23.364;2023-12-20T02:40:21;259.37;;;96.83;;
6133;SDS011;3098;42.678;23.364;2023-12-20T02:43:13;251.57;;;91.27;;
6133;SDS011;3098;42.678;23.364;2023-12-20T02:45:48;276.37;;;103.80;;
6133;SDS011;3098;42.678;23.364;2023-12-20T02:48:26;283.23;;;106.50;;
6133;SDS011;3098;42.678;23.364;2023-12-20T02:53:49;155.67;;;56.10;;
6133;SDS011;3098;42.678;23.364;2023-12-20T02:56:26;218.83;;;79.27;;
6133;SDS011;3098;42.678;23.364;2023-12-20T02:59:02;206.93;;;78.73;;
6133;SDS011;3098;42.678;23.364;2023-12-20T03:01:44;194.50;;;71.00;;
6133;SDS011;3098;42.678;23.364;2023-12-20T03:04:28;195.13;;;71.03;;
6133;SDS011;3098;42.678;23.364;2023-12-20T03:07:07;181.57;;;65.27;;
6133;SDS011;3098;42.678;23.364;2023-12-20T03:09:48;180.10;;;63.73;;
6133;SDS011;3098;42.678;23.364;2023-12-20T03:12:28;168.20;;;59.57;;
6133;SDS011;3098;42.678;23.364;2023-12-20T03:15:12;181.70;;;60.83;;
6133;SDS011;3098;42.678;23.364;2023-12-20T03:18:00;174.33;;;60.43;;
6133;SDS011;3098;42.678;23.364;2023-12-20T03:20:36;173.33;;;62.27;;
6133;SDS011;3098;42.678;23.364;2023-12-20T03:23:17;156.33;;;60.80;;
6133;SDS011;3098;42.678;23.364;2023-12-20T03:26:05;161.87;;;60.07;;
6133;SDS011;3098;42.678;23.364;2023-12-20T03:28:57;123.17;;;46.73;;
6133;SDS011;3098;42.678;23.364;2023-12-20T03:31:30;102.20;;;37.80;;
6133;SDS011;3098;42.678;23.364;2023-12-20T03:34:07;118.87;;;36.20;;
6133;SDS011;3098;42.678;23.364;2023-12-20T03:36:41;90.87;;;38.03;;
6133;SDS011;3098;42.678;23.364;2023-12-20T03:39:21;103.20;;;36.10;;
6133;SDS011;3098;42.678;23.364;2023-12-20T03:53:45;122.10;;;41.17;;
6133;SDS011;3098;42.678;23.364;2023-12-20T03:56:28;132.80;;;35.70;;
6133;SDS011;3098;42.678;23.364;2023-12-20T03:59:04;104.63;;;40.83;;
6133;SDS011;3098;42.678;23.364;2023-12-20T04:01:46;107.47;;;40.80;;
6133;SDS011;3098;42.678;23.364;2023-12-20T04:04:29;119.53;;;41.10;;
6133;SDS011;3098;42.678;23.364;2023-12-20T04:40:51;179.37;;;51.63;;
6133;SDS011;3098;42.678;23.364;2023-12-20T04:43:48;141.37;;;48.73;;
6133;SDS011;3098;42.678;23.364;2023-12-20T04:46:31;175.73;;;58.40;;
6133;SDS011;3098;42.678;23.364;2023-12-20T04:49:12;185.13;;;62.13;;
6133;SDS011;3098;42.678;23.364;2023-12-20T04:51:54;207.23;;;58.03;;
6133;SDS011;3098;42.678;23.364;2023-12-20T04:54:24;225.97;;;59.87;;
6133;SDS011;3098;42.678;23.364;2023-12-20T04:57:04;177.53;;;55.37;;
6133;SDS011;3098;42.678;23.364;2023-12-20T04:59:36;173.77;;;48.87;;
6133;SDS011;3098;42.678;23.364;2023-12-20T05:02:21;177.37;;;41.93;;
6133;SDS011;3098;42.678;23.364;2023-12-20T05:04:58;192.57;;;45.73;;
6133;SDS011;3098;42.678;23.364;2023-12-20T05:07:38;178.23;;;54.23;;
6133;SDS011;3098;42.678;23.364;2023-12-20T06:51:10;96.60;;;27.80;;
6133;SDS011;3098;42.678;23.364;2023-12-20T06:57:06;113.63;;;28.80;;
6133;SDS011;3098;42.678;23.364;2023-12-20T06:59:46;121.03;;;29.27;;
6133;SDS011;3098;42.678;23.364;2023-12-20T07:02:20;95.93;;;28.67;;
6133;SDS011;3098;42.678;23.364;2023-12-20T08:19:49;102.90;;;35.17;;
6133;SDS011;3098;42.678;23.364;2023-12-20T08:22:25;111.67;;;36.97;;
6133;SDS011;3098;42.678;23.364;2023-12-20T08:24:59;110.20;;;37.17;;
6133;SDS011;3098;42.678;23.364;2023-12-20T08:27:39;111.30;;;34.57;;
6133;SDS011;3098;42.678;23.364;2023-12-20T08:30:08;117.53;;;37.47;;
6133;SDS011;3098;42.678;23.364;2023-12-20T08:32:36;113.50;;;35.53;;
6133;SDS011;3098;42.678;23.364;2023-12-20T08:35:07;111.53;;;39.90;;
6133;SDS011;3098;42.678;23.364;2023-12-20T08:37:38;125.80;;;37.50;;
6133;SDS011;3098;42.678;23.364;2023-12-20T08:40:07;110.83;;;36.47;;
6133;SDS011;3098;42.678;23.364;2023-12-20T08:42:35;115.33;;;38.43;;
6133;SDS011;3098;42.678;23.364;2023-12-20T08:45:04;120.87;;;37.27;;
6133;SDS011;3098;42.678;23.364;2023-12-20T08:47:34;113.20;;;37.73;;
6133;SDS011;3098;42.678;23.364;2023-12-20T08:50:03;100.80;;;33.83;;
6133;SDS011;3098;42.678;23.364;2023-12-20T08:52:33;105.30;;;35.93;;
6133;SDS011;3098;42.678;23.364;2023-12-20T08:55:01;106.67;;;34.20;;
6133;SDS011;3098;42.678;23.364;2023-12-20T08:57:30;124.17;;;38.57;;
6133;SDS011;3098;42.678;23.364;2023-12-20T09:00:01;127.80;;;36.67;;
6133;SDS011;3098;42.678;23.364;2023-12-20T09:02:28;116.07;;;36.70;;
6133;SDS011;3098;42.678;23.364;2023-12-20T09:04:56;114.80;;;34.27;;
6133;SDS011;3098;42.678;23.364;2023-12-20T09:07:24;117.73;;;36.30;;
6133;SDS011;3098;42.678;23.364;2023-12-20T09:09:57;120.13;;;34.50;;
6133;SDS011;3098;42.678;23.364;2023-12-20T09:12:28;123.73;;;38.73;;
6133;SDS011;3098;42.678;23.364;2023-12-20T09:14:55;123.57;;;36.97;;
6133;SDS011;3098;42.678;23.364;2023-12-20T09:17:25;142.33;;;38.03;;
6133;SDS011;3098;42.678;23.364;2023-12-20T09:19:54;121.20;;;35.40;;
6133;SDS011;3098;42.678;23.364;2023-12-20T09:22:25;120.87;;;37.97;;
6133;SDS011;3098;42.678;23.364;2023-12-20T09:24:54;111.53;;;35.43;;
6133;SDS011;3098;42.678;23.364;2023-12-20T09:27:24;119.93;;;39.03;;
6133;SDS011;3098;42.678;23.364;2023-12-20T09:29:53;111.83;;;37.67;;
6133;SDS011;3098;42.678;23.364;2023-12-20T09:32:26;123.60;;;37.30;;
6133;SDS011;3098;42.678;23.364;2023-12-20T09:34:56;143.50;;;39.23;;
6133;SDS011;3098;42.678;23.364;2023-12-20T09:37:29;127.40;;;38.07;;
6133;SDS011;3098;42.678;23.364;2023-12-20T09:42:51;128.67;;;37.03;;
6133;SDS011;3098;42.678;23.364;2023-12-20T09:45:28;123.87;;;37.17;;
6133;SDS011;3098;42.678;23.364;2023-12-20T09:48:01;121.90;;;37.40;;
6133;SDS011;3098;42.678;23.364;2023-12-20T09:50:31;113.73;;;36.83;;
6133;SDS011;3098;42.678;23.364;2023-12-20T09:53:10;118.67;;;37.07;;
6133;SDS011;3098;42.678;23.364;2023-12-20T09:55:44;122.90;;;37.83;;
6133;SDS011;3098;42.678;23.364;2023-12-20T09:58:25;112.93;;;36.67;;
6133;SDS011;3098;42.678;23.364;2023-12-20T10:00:53;103.77;;;33.90;;
6133;SDS011;3098;42.678;23.364;2023-12-20T10:03:24;134.43;;;39.07;;
6133;SDS011;3098;42.678;23.364;2023-12-20T10:06:01;120.73;;;37.90;;
6133;SDS011;3098;42.678;23.364;2023-12-20T10:08:41;131.47;;;38.10;;
6133;SDS011;3098;42.678;23.364;2023-12-20T10:11:29;113.97;;;39.13;;
6133;SDS011;3098;42.678;23.364;2023-12-20T10:16:47;105.90;;;36.30;;
6133;SDS011;3098;42.678;23.364;2023-12-20T10:19:17;119.73;;;35.53;;
6133;SDS011;3098;42.678;23.364;2023-12-20T10:21:47;131.07;;;38.23;;
6133;SDS011;3098;42.678;23.364;2023-12-20T10:24:31;117.70;;;38.97;;
6133;SDS011;3098;42.678;23.364;2023-12-20T10:29:42;123.90;;;41.25;;
6133;SDS011;3098;42.678;23.364;2023-12-20T10:32:29;103.93;;;37.97;;
6133;SDS011;3098;42.678;23.364;2023-12-20T10:34:58;104.70;;;37.25;;
6133;SDS011;3098;42.678;23.364;2023-12-20T10:37:36;95.80;;;36.80;;
6133;SDS011;3098;42.678;23.364;2023-12-20T10:40:06;107.90;;;37.80;;
6133;SDS011;3098;42.678;23.364;2023-12-20T10:42:52;98.38;;;37.28;;
6133;SDS011;3098;42.678;23.364;2023-12-20T10:45:21;108.75;;;39.25;;
6133;SDS011;3098;42.678;23.364;2023-12-20T10:47:55;98.53;;;38.67;;
6133;SDS011;3098;42.678;23.364;2023-12-20T10:50:27;105.47;;;39.67;;
6133;SDS011;3098;42.678;23.364;2023-12-20T10:52:59;107.22;;;37.92;;
6133;SDS011;3098;42.678;23.364;2023-12-20T10:55:36;109.60;;;37.17;;
6133;SDS011;3098;42.678;23.364;2023-12-20T10:58:08;120.40;;;44.67;;
6133;SDS011;3098;42.678;23.364;2023-12-20T11:00:40;123.50;;;44.28;;
6133;SDS011;3098;42.678;23.364;2023-12-20T11:03:16;119.65;;;39.05;;
6133;SDS011;3098;42.678;23.364;2023-12-20T11:05:51;98.05;;;37.05;;
6133;SDS011;3098;42.678;23.364;2023-12-20T11:08:32;105.78;;;40.38;;
6133;SDS011;3098;42.678;23.364;2023-12-20T11:11:12;107.00;;;40.05;;
6133;SDS011;3098;42.678;23.364;2023-12-20T11:13:53;108.40;;;39.03;;
6133;SDS011;3098;42.678;23.364;2023-12-20T11:16:24;90.05;;;36.47;;
6133;SDS011;3098;42.678;23.364;2023-12-20T11:21:38;104.00;;;38.33;;
6133;SDS011;3098;42.678;23.364;2023-12-20T11:24:07;105.13;;;38.88;;
6133;SDS011;3098;42.678;23.364;2023-12-20T11:26:41;91.28;;;39.40;;
6133;SDS011;3098;42.678;23.364;2023-12-20T11:34:58;96.47;;;35.25;;
6133;SDS011;3098;42.678;23.364;2023-12-20T11:40:08;101.82;;;37.38;;
6133;SDS011;3098;42.678;23.364;2023-12-20T11:42:40;106.30;;;38.45;;
6133;SDS011;3098;42.678;23.364;2023-12-20T11:45:17;98.35;;;37.00;;
6133;SDS011;3098;42.678;23.364;2023-12-20T11:47:53;102.10;;;37.65;;
6133;SDS011;3098;42.678;23.364;2023-12-20T11:50:41;106.45;;;38.13;;
6133;SDS011;3098;42.678;23.364;2023-12-20T11:53:17;109.00;;;35.73;;
6133;SDS011;3098;42.678;23.364;2023-12-20T12:01:05;112.43;;;38.03;;
6133;SDS011;3098;42.678;23.364;2023-12-20T12:03:39;121.97;;;39.07;;
6133;SDS011;3098;42.678;23.364;2023-12-20T12:06:10;122.17;;;43.10;;
6133;SDS011;3098;42.678;23.364;2023-12-20T12:08:43;120.70;;;43.10;;
6133;SDS011;3098;42.678;23.364;2023-12-20T12:11:29;139.20;;;41.63;;
6133;SDS011;3098;42.678;23.364;2023-12-20T12:14:06;127.87;;;40.80;;
6133;SDS011;3098;42.678;23.364;2023-12-20T12:16:38;133.40;;;42.07;;
6133;SDS011;3098;42.678;23.364;2023-12-20T12:19:06;119.07;;;41.30;;
6133;SDS011;3098;42.678;23.364;2023-12-20T12:21:50;131.20;;;43.10;;
6133;SDS011;3098;42.678;23.364;2023-12-20T12:24:36;112.93;;;42.03;;
6133;SDS011;3098;42.678;23.364;2023-12-20T12:27:31;137.50;;;42.37;;
6133;SDS011;3098;42.678;23.364;2023-12-20T12:30:01;140.27;;;43.77;;
6133;SDS011;3098;42.678;23.364;2023-12-20T12:32:41;124.20;;;40.53;;
6133;SDS011;3098;42.678;23.364;2023-12-20T12:35:18;127.23;;;42.90;;
6133;SDS011;3098;42.678;23.364;2023-12-20T12:37:58;133.07;;;43.20;;
6133;SDS011;3098;42.678;23.364;2023-12-20T12:40:37;121.25;;;42.10;;
6133;SDS011;3098;42.678;23.364;2023-12-20T12:43:14;126.95;;;43.17;;
6133;SDS011;3098;42.678;23.364;2023-12-20T12:46:12;112.00;;;40.27;;
6133;SDS011;3098;42.678;23.364;2023-12-20T12:48:42;121.13;;;42.03;;
6133;SDS011;3098;42.678;23.364;2023-12-20T12:51:18;112.90;;;39.73;;
6133;SDS011;3098;42.678;23.364;2023-12-20T12:53:46;124.90;;;41.37;;
6133;SDS011;3098;42.678;23.364;2023-12-20T12:56:16;125.60;;;41.77;;
6133;SDS011;3098;42.678;23.364;2023-12-20T12:58:46;139.60;;;43.80;;
6133;SDS011;3098;42.678;23.364;2023-12-20T13:01:17;135.10;;;41.77;;
6133;SDS011;3098;42.678;23.364;2023-12-20T13:06:34;149.80;;;50.77;;
6133;SDS011;3098;42.678;23.364;2023-12-20T13:09:06;189.23;;;56.23;;
6133;SDS011;3098;42.678;23.364;2023-12-20T13:11:47;154.67;;;51.23;;
6133;SDS011;3098;42.678;23.364;2023-12-20T13:14:25;164.00;;;51.53;;
6133;SDS011;3098;42.678;23.364;2023-12-20T13:16:57;162.77;;;48.57;;
6133;SDS011;3098;42.678;23.364;2023-12-20T13:19:27;154.60;;;45.40;;
6133;SDS011;3098;42.678;23.364;2023-12-20T13:22:06;136.93;;;43.53;;
6133;SDS011;3098;42.678;23.364;2023-12-20T13:24:36;135.03;;;41.93;;
6133;SDS011;3098;42.678;23.364;2023-12-20T13:27:10;144.47;;;42.73;;
6133;SDS011;3098;42.678;23.364;2023-12-20T13:29:49;137.33;;;40.03;;
6133;SDS011;3098;42.678;23.364;2023-12-20T13:32:23;129.90;;;38.73;;
6133;SDS011;3098;42.678;23.364;2023-12-20T13:34:56;148.97;;;37.00;;
6133;SDS011;3098;42.678;23.364;2023-12-20T13:37:32;118.70;;;36.23;;
6133;SDS011;3098;42.678;23.364;2023-12-20T13:40:01;149.43;;;38.37;;
6133;SDS011;3098;42.678;23.364;2023-12-20T13:42:38;113.43;;;35.57;;
6133;SDS011;3098;42.678;23.364;2023-12-20T13:45:15;129.53;;;37.83;;
6133;SDS011;3098;42.678;23.364;2023-12-20T13:48:09;140.53;;;35.73;;
6133;SDS011;3098;42.678;23.364;2023-12-20T13:50:40;117.93;;;36.23;;
6133;SDS011;3098;42.678;23.364;2023-12-20T13:53:20;132.87;;;35.23;;
6133;SDS011;3098;42.678;23.364;2023-12-20T13:55:50;199.23;;;38.13;;
6133;SDS011;3098;42.678;23.364;2023-12-20T13:58:31;174.90;;;35.03;;
6133;SDS011;3098;42.678;23.364;2023-12-20T14:01:02;112.30;;;34.27;;
6133;SDS011;3098;42.678;23.364;2023-12-20T14:03:38;100.50;;;31.80;;
6133;SDS011;3098;42.678;23.364;2023-12-20T14:06:11;123.43;;;33.13;;
6133;SDS011;3098;42.678;23.364;2023-12-20T14:08:47;98.83;;;32.43;;
6133;SDS011;3098;42.678;23.364;2023-12-20T14:11:16;105.10;;;36.23;;
6133;SDS011;3098;42.678;23.364;2023-12-20T14:13:48;130.60;;;35.67;;
6133;SDS011;3098;42.678;23.364;2023-12-20T14:16:22;121.87;;;35.77;;
6133;SDS011;3098;42.678;23.364;2023-12-20T14:18:58;124.07;;;38.40;;
6133;SDS011;3098;42.678;23.364;2023-12-20T14:21:44;139.83;;;40.27;;
6133;SDS011;3098;42.678;23.364;2023-12-20T14:24:24;137.67;;;39.57;;
6133;SDS011;3098;42.678;23.364;2023-12-20T14:26:55;154.97;;;41.33;;
6133;SDS011;3098;42.678;23.364;2023-12-20T14:29:40;138.37;;;39.67;;
6133;SDS011;3098;42.678;23.364;2023-12-20T14:32:19;143.67;;;41.60;;
6133;SDS011;3098;42.678;23.364;2023-12-20T14:35:00;155.17;;;46.60;;
6133;SDS011;3098;42.678;23.364;2023-12-20T14:37:36;181.00;;;51.97;;
6133;SDS011;3098;42.678;23.364;2023-12-20T14:42:55;224.27;;;60.40;;
6133;SDS011;3098;42.678;23.364;2023-12-20T14:45:27;217.20;;;55.33;;
6133;SDS011;3098;42.678;23.364;2023-12-20T14:47:54;169.07;;;48.37;;
6133;SDS011;3098;42.678;23.364;2023-12-20T14:50:31;168.63;;;50.07;;
6133;SDS011;3098;42.678;23.364;2023-12-20T14:53:03;158.73;;;49.10;;
6133;SDS011;3098;42.678;23.364;2023-12-20T14:55:32;165.97;;;50.30;;
6133;SDS011;3098;42.678;23.364;2023-12-20T14:58:05;167.00;;;49.90;;
6133;SDS011;3098;42.678;23.364;2023-12-20T15:00:33;182.87;;;48.50;;
6133;SDS011;3098;42.678;23.364;2023-12-20T15:03:02;152.17;;;46.10;;
6133;SDS011;3098;42.678;23.364;2023-12-20T15:05:35;154.53;;;44.53;;
6133;SDS011;3098;42.678;23.364;2023-12-20T15:08:04;166.87;;;46.23;;
6133;SDS011;3098;42.678;23.364;2023-12-20T15:10:33;173.83;;;47.60;;
6133;SDS011;3098;42.678;23.364;2023-12-20T15:13:11;172.47;;;48.87;;
6133;SDS011;3098;42.678;23.364;2023-12-20T15:15:40;186.40;;;51.53;;
6133;SDS011;3098;42.678;23.364;2023-12-20T15:18:09;187.00;;;50.93;;
6133;SDS011;3098;42.678;23.364;2023-12-20T15:20:37;168.47;;;47.13;;
6133;SDS011;3098;42.678;23.364;2023-12-20T15:23:09;169.60;;;48.93;;
6133;SDS011;3098;42.678;23.364;2023-12-20T15:25:37;184.37;;;50.43;;
6133;SDS011;3098;42.678;23.364;2023-12-20T15:28:04;176.40;;;50.57;;
6133;SDS011;3098;42.678;23.364;2023-12-20T15:30:34;196.43;;;54.40;;
6133;SDS011;3098;42.678;23.364;2023-12-20T15:33:01;180.17;;;49.93;;
6133;SDS011;3098;42.678;23.364;2023-12-20T15:35:29;188.57;;;53.63;;
6133;SDS011;3098;42.678;23.364;2023-12-20T15:37:59;162.67;;;47.43;;
6133;SDS011;3098;42.678;23.364;2023-12-20T15:40:28;172.90;;;49.63;;
6133;SDS011;3098;42.678;23.364;2023-12-20T15:42:56;176.80;;;51.93;;
6133;SDS011;3098;42.678;23.364;2023-12-20T15:45:25;155.17;;;48.93;;
6133;SDS011;3098;42.678;23.364;2023-12-20T15:47:53;193.90;;;57.07;;
6133;SDS011;3098;42.678;23.364;2023-12-20T15:50:24;189.93;;;52.10;;
6133;SDS011;3098;42.678;23.364;2023-12-20T15:52:53;170.97;;;49.40;;
6133;SDS011;3098;42.678;23.364;2023-12-20T15:55:24;193.50;;;53.27;;
6133;SDS011;3098;42.678;23.364;2023-12-20T15:57:58;202.20;;;55.47;;
6133;SDS011;3098;42.678;23.364;2023-12-20T16:00:44;206.77;;;58.67;;
6133;SDS011;3098;42.678;23.364;2023-12-20T16:08:48;204.67;;;53.27;;
6133;SDS011;3098;42.678;23.364;2023-12-20T16:11:25;273.10;;;58.30;;
6133;SDS011;3098;42.678;23.364;2023-12-20T16:13:54;228.27;;;57.83;;
6133;SDS011;3098;42.678;23.364;2023-12-20T16:19:49;232.40;;;55.07;;
6133;SDS011;3098;42.678;23.364;2023-12-20T16:22:18;238.00;;;59.00;;
6133;SDS011;3098;42.678;23.364;2023-12-20T16:24:46;298.20;;;63.10;;
6133;SDS011;3098;42.678;23.364;2023-12-20T16:27:15;403.57;;;82.30;;
6133;SDS011;3098;42.678;23.364;2023-12-20T16:29:46;337.47;;;71.20;;
6133;SDS011;3098;42.678;23.364;2023-12-20T16:35:11;363.43;;;72.50;;
6133;SDS011;3098;42.678;23.364;2023-12-20T16:37:42;345.53;;;71.47;;
6133;SDS011;3098;42.678;23.364;2023-12-20T16:40:16;532.57;;;79.17;;
6133;SDS011;3098;42.678;23.364;2023-12-20T16:42:49;347.10;;;73.97;;
6133;SDS011;3098;42.678;23.364;2023-12-20T16:45:19;483.77;;;88.33;;
6133;SDS011;3098;42.678;23.364;2023-12-20T16:47:47;527.30;;;93.77;;
6133;SDS011;3098;42.678;23.364;2023-12-20T16:50:30;449.17;;;83.40;;
6133;SDS011;3098;42.678;23.364;2023-12-20T16:53:02;425.70;;;73.27;;
6133;SDS011;3098;42.678;23.364;2023-12-20T16:55:39;373.90;;;70.27;;
6133;SDS011;3098;42.678;23.364;2023-12-20T16:58:10;411.70;;;73.23;;
6133;SDS011;3098;42.678;23.364;2023-12-20T17:00:44;351.53;;;71.13;;
6133;SDS011;3098;42.678;23.364;2023-12-20T17:03:17;467.87;;;77.47;;
6133;SDS011;3098;42.678;23.364;2023-12-20T17:06:05;395.90;;;76.37;;
6133;SDS011;3098;42.678;23.364;2023-12-20T17:08:34;378.67;;;74.53;;
6133;SDS011;3098;42.678;23.364;2023-12-20T17:11:03;399.03;;;74.90;;
6133;SDS011;3098;42.678;23.364;2023-12-20T17:13:31;591.10;;;93.80;;
6133;SDS011;3098;42.678;23.364;2023-12-20T17:16:00;301.33;;;75.60;;
6133;SDS011;3098;42.678;23.364;2023-12-20T17:18:28;490.00;;;85.87;;
6133;SDS011;3098;42.678;23.364;2023-12-20T17:21:24;469.07;;;82.83;;
6133;SDS011;3098;42.678;23.364;2023-12-20T17:24:10;376.10;;;82.50;;
6133;SDS011;3098;42.678;23.364;2023-12-20T17:26:42;359.57;;;94.93;;
6133;SDS011;3098;42.678;23.364;2023-12-20T17:29:18;439.97;;;91.17;;
6133;SDS011;3098;42.678;23.364;2023-12-20T17:32:03;377.93;;;81.00;;
6133;SDS011;3098;42.678;23.364;2023-12-20T17:34:40;409.90;;;89.60;;
6133;SDS011;3098;42.678;23.364;2023-12-20T17:37:16;527.10;;;94.43;;
6133;SDS011;3098;42.678;23.364;2023-12-20T17:39:49;351.03;;;78.70;;
6133;SDS011;3098;42.678;23.364;2023-12-20T17:42:20;331.63;;;83.50;;
6133;SDS011;3098;42.678;23.364;2023-12-20T17:44:55;338.27;;;80.73;;
6133;SDS011;3098;42.678;23.364;2023-12-20T17:47:28;434.87;;;86.80;;
6133;SDS011;3098;42.678;23.364;2023-12-20T17:50:01;407.47;;;91.60;;
6133;SDS011;3098;42.678;23.364;2023-12-20T17:55:15;353.27;;;84.73;;
6133;SDS011;3098;42.678;23.364;2023-12-20T17:57:44;341.57;;;76.53;;
6133;SDS011;3098;42.678;23.364;2023-12-20T18:00:16;371.67;;;70.30;;
6133;SDS011;3098;42.678;23.364;2023-12-20T18:02:56;390.00;;;70.33;;
6133;SDS011;3098;42.678;23.364;2023-12-20T18:05:34;352.37;;;70.63;;
6133;SDS011;3098;42.678;23.364;2023-12-20T18:08:18;488.13;;;71.20;;
6133;SDS011;3098;42.678;23.364;2023-12-20T18:14:03;318.80;;;70.57;;
6133;SDS011;3098;42.678;23.364;2023-12-20T18:16:37;242.57;;;60.20;;
6133;SDS011;3098;42.678;23.364;2023-12-20T18:19:07;504.63;;;72.67;;
6133;SDS011;3098;42.678;23.364;2023-12-20T18:24:07;481.07;;;76.03;;
6133;SDS011;3098;42.678;23.364;2023-12-20T18:26:42;387.10;;;68.73;;
6133;SDS011;3098;42.678;23.364;2023-12-20T18:29:18;399.07;;;69.00;;
6133;SDS011;3098;42.678;23.364;2023-12-20T18:31:53;347.93;;;63.17;;
6133;SDS011;3098;42.678;23.364;2023-12-20T18:34:23;399.50;;;66.07;;
6133;SDS011;3098;42.678;23.364;2023-12-20T18:36:56;345.73;;;69.13;;
6133;SDS011;3098;42.678;23.364;2023-12-20T18:39:34;291.17;;;60.33;;
6133;SDS011;3098;42.678;23.364;2023-12-20T18:42:25;429.83;;;73.63;;
6133;SDS011;3098;42.678;23.364;2023-12-20T18:44:54;434.80;;;76.20;;
6133;SDS011;3098;42.678;23.364;2023-12-20T18:47:22;473.17;;;81.53;;
6133;SDS011;3098;42.678;23.364;2023-12-20T18:49:50;338.77;;;64.57;;
6133;SDS011;3098;42.678;23.364;2023-12-20T18:52:21;378.17;;;70.83;;
6133;SDS011;3098;42.678;23.364;2023-12-20T18:54:49;331.90;;;70.73;;
6133;SDS011;3098;42.678;23.364;2023-12-20T18:57:16;345.20;;;67.47;;
6133;SDS011;3098;42.678;23.364;2023-12-20T18:59:46;290.23;;;55.67;;
6133;SDS011;3098;42.678;23.364;2023-12-20T19:02:13;322.33;;;71.43;;
6133;SDS011;3098;42.678;23.364;2023-12-20T19:04:43;362.53;;;76.30;;
6133;SDS011;3098;42.678;23.364;2023-12-20T19:07:12;382.33;;;72.77;;
6133;SDS011;3098;42.678;23.364;2023-12-20T19:09:40;353.37;;;68.30;;
6133;SDS011;3098;42.678;23.364;2023-12-20T19:12:11;349.73;;;78.63;;
6133;SDS011;3098;42.678;23.364;2023-12-20T19:14:47;305.60;;;63.97;;
6133;SDS011;3098;42.678;23.364;2023-12-20T19:17:14;319.23;;;67.37;;
6133;SDS011;3098;42.678;23.364;2023-12-20T19:19:41;265.63;;;66.23;;
6133;SDS011;3098;42.678;23.364;2023-12-20T19:22:10;332.60;;;69.37;;
6133;SDS011;3098;42.678;23.364;2023-12-20T19:24:38;328.20;;;70.73;;
6133;SDS011;3098;42.678;23.364;2023-12-20T19:27:09;326.47;;;72.70;;
6133;SDS011;3098;42.678;23.364;2023-12-20T19:29:43;245.33;;;63.17;;
6133;SDS011;3098;42.678;23.364;2023-12-20T19:38:25;321.87;;;67.43;;
6133;SDS011;3098;42.678;23.364;2023-12-20T19:40:57;361.93;;;69.47;;
6133;SDS011;3098;42.678;23.364;2023-12-20T19:43:35;370.40;;;66.60;;
6133;SDS011;3098;42.678;23.364;2023-12-20T19:46:08;465.83;;;74.60;;
6133;SDS011;3098;42.678;23.364;2023-12-20T19:48:42;305.30;;;63.87;;
6133;SDS011;3098;42.678;23.364;2023-12-20T19:51:13;241.67;;;58.43;;
6133;SDS011;3098;42.678;23.364;2023-12-20T19:53:55;284.47;;;63.43;;
6133;SDS011;3098;42.678;23.364;2023-12-20T19:56:25;258.70;;;60.87;;
6133;SDS011;3098;42.678;23.364;2023-12-20T19:59:08;301.37;;;63.80;;
6133;SDS011;3098;42.678;23.364;2023-12-20T20:01:48;335.70;;;64.23;;
6133;SDS011;3098;42.678;23.364;2023-12-20T20:04:21;309.10;;;64.53;;
6133;SDS011;3098;42.678;23.364;2023-12-20T20:06:53;267.83;;;61.40;;
6133;SDS011;3098;42.678;23.364;2023-12-20T20:09:30;386.10;;;65.67;;
6133;SDS011;3098;42.678;23.364;2023-12-20T20:12:11;404.13;;;61.33;;
6133;SDS011;3098;42.678;23.364;2023-12-20T20:14:45;256.07;;;55.80;;
6133;SDS011;3098;42.678;23.364;2023-12-20T20:17:16;243.20;;;57.67;;
6133;SDS011;3098;42.678;23.364;2023-12-20T20:19:50;233.63;;;57.37;;
6133;SDS011;3098;42.678;23.364;2023-12-20T20:22:25;190.00;;;55.40;;
6133;SDS011;3098;42.678;23.364;2023-12-20T20:24:59;251.20;;;57.83;;
6133;SDS011;3098;42.678;23.364;2023-12-20T20:27:26;208.80;;;58.57;;
6133;SDS011;3098;42.678;23.364;2023-12-20T20:29:55;257.27;;;61.20;;
6133;SDS011;3098;42.678;23.364;2023-12-20T20:32:28;387.53;;;71.47;;
6133;SDS011;3098;42.678;23.364;2023-12-20T20:35:00;275.70;;;64.27;;
6133;SDS011;3098;42.678;23.364;2023-12-20T20:37:36;243.40;;;63.60;;
6133;SDS011;3098;42.678;23.364;2023-12-20T20:47:50;233.63;;;61.63;;
6133;SDS011;3098;42.678;23.364;2023-12-20T20:50:23;223.20;;;65.30;;
6133;SDS011;3098;42.678;23.364;2023-12-20T20:53:04;327.53;;;70.80;;
6133;SDS011;3098;42.678;23.364;2023-12-20T20:55:39;264.37;;;67.27;;
6133;SDS011;3098;42.678;23.364;2023-12-20T20:58:12;282.73;;;73.87;;
6133;SDS011;3098;42.678;23.364;2023-12-20T21:00:42;313.93;;;72.50;;
6133;SDS011;3098;42.678;23.364;2023-12-20T21:08:37;364.23;;;59.30;;
6133;SDS011;3098;42.678;23.364;2023-12-20T21:11:10;352.47;;;75.97;;
6133;SDS011;3098;42.678;23.364;2023-12-20T21:13:49;428.80;;;85.33;;
6133;SDS011;3098;42.678;23.364;2023-12-20T21:16:25;430.73;;;85.43;;
6133;SDS011;3098;42.678;23.364;2023-12-20T21:18:56;414.67;;;83.13;;
6133;SDS011;3098;42.678;23.364;2023-12-20T21:21:42;395.53;;;81.40;;
6133;SDS011;3098;42.678;23.364;2023-12-20T21:27:28;319.00;;;71.60;;
6133;SDS011;3098;42.678;23.364;2023-12-20T21:30:01;231.77;;;68.53;;
6133;SDS011;3098;42.678;23.364;2023-12-20T21:32:46;251.93;;;64.43;;
6133;SDS011;3098;42.678;23.364;2023-12-20T21:35:14;211.60;;;65.23;;
6133;SDS011;3098;42.678;23.364;2023-12-20T21:37:45;247.77;;;66.40;;
6133;SDS011;3098;42.678;23.364;2023-12-20T21:40:23;297.43;;;72.60;;
6133;SDS011;3098;42.678;23.364;2023-12-20T21:42:56;251.60;;;69.73;;
6133;SDS011;3098;42.678;23.364;2023-12-20T21:45:27;289.90;;;70.97;;
6133;SDS011;3098;42.678;23.364;2023-12-20T21:47:57;334.77;;;80.13;;
6133;SDS011;3098;42.678;23.364;2023-12-20T21:50:25;245.00;;;64.23;;
6133;SDS011;3098;42.678;23.364;2023-12-20T21:52:53;406.40;;;78.57;;
6133;SDS011;3098;42.678;23.364;2023-12-20T21:55:23;251.93;;;71.90;;
6133;SDS011;3098;42.678;23.364;2023-12-20T21:58:06;296.83;;;69.37;;
6133;SDS011;3098;42.678;23.364;2023-12-20T22:00:34;253.63;;;69.17;;
6133;SDS011;3098;42.678;23.364;2023-12-20T22:03:02;244.43;;;71.33;;
6133;SDS011;3098;42.678;23.364;2023-12-20T22:05:34;282.53;;;71.40;;
6133;SDS011;3098;42.678;23.364;2023-12-20T22:08:08;458.20;;;82.33;;
6133;SDS011;3098;42.678;23.364;2023-12-20T22:10:38;298.63;;;75.03;;
6133;SDS011;3098;42.678;23.364;2023-12-20T22:15:53;378.00;;;76.30;;
6133;SDS011;3098;42.678;23.364;2023-12-20T22:18:23;393.47;;;79.73;;
6133;SDS011;3098;42.678;23.364;2023-12-20T22:20:52;296.30;;;71.90;;
6133;SDS011;3098;42.678;23.364;2023-12-20T22:23:21;349.57;;;73.93;;